Swan Station, North Carolina
Current Conditions -  °F | °C
As of 1:15 AM on Sunday 26 Oct 2014 (Local Time) from KTTA Reporting Station
Clear Clear  
Wind Chill: 51°   Ceiling: Unl
Heat Index: 51°   Visibility: 10mi
Dew Point: 45°   Wind: 5mph
Humidity: 80%   Direction: 220°SW
Pressure: 29.87"   Gusts: NA
Location:  35.493°N, 79.1765°W
Report Text: KTTA 260515Z AUTO 22004KT 10SM CLR 10/07 A2987 RMK AO2 T01040071
Loading
Personal Weather Stations






























Interactive Weather Map
Tropical Storm Tracking
New forecast layout! Learn more

10-Day Weather Forecast

Advertisements
Track Severe Weather on mobile